createdAt,value
2018-06-25T00:00:18.083Z,6.80
2018-06-25T00:00:51.932Z,6.50
2018-06-25T00:01:25.840Z,9.23
2018-06-25T00:01:59.720Z,7.57
2018-06-25T00:02:33.938Z,8.47
2018-06-25T00:03:07.827Z,6.50
2018-06-25T00:03:41.725Z,10.20
2018-06-25T00:04:15.947Z,9.73
2018-06-25T00:04:49.817Z,9.23
2018-06-25T00:05:23.725Z,8.13
2018-06-25T00:05:57.633Z,6.17
2018-06-25T00:06:31.862Z,6.93
2018-06-25T00:07:05.808Z,7.63
2018-06-25T00:07:39.686Z,7.63
2018-06-25T00:08:13.905Z,8.17
2018-06-25T00:08:47.797Z,6.83
2018-06-25T00:09:21.622Z,6.63
2018-06-25T00:09:55.504Z,9.00
2018-06-25T00:10:29.770Z,7.67
2018-06-25T00:11:04.030Z,6.53
2018-06-25T00:11:37.910Z,7.10
2018-06-25T00:12:12.157Z,9.70
2018-06-25T00:12:46.029Z,12.77
2018-06-25T00:13:19.912Z,10.00
2018-06-25T00:13:53.770Z,7.23
2018-06-25T00:14:27.693Z,10.53
2018-06-25T00:15:01.615Z,8.37
2018-06-25T00:15:36.147Z,7.33
2018-06-25T00:16:10.038Z,10.77
2018-06-25T00:16:43.905Z,8.73
2018-06-25T00:17:17.777Z,6.50
2018-06-25T00:17:51.957Z,7.53
2018-06-25T00:18:25.857Z,7.17
2018-06-25T00:18:59.770Z,7.00
2018-06-25T00:19:33.663Z,6.40
2018-06-25T00:20:07.520Z,11.83
2018-06-25T00:20:41.443Z,8.93
2018-06-25T00:21:15.649Z,6.90
2018-06-25T00:21:49.655Z,7.17
2018-06-25T00:22:23.546Z,9.90
2018-06-25T00:22:57.444Z,10.63
2018-06-25T00:23:31.716Z,8.97
2018-06-25T00:24:06.442Z,9.50
2018-06-25T00:24:40.359Z,7.50
2018-06-25T00:25:14.265Z,8.80
2018-06-25T00:25:48.253Z,8.00
2018-06-25T00:26:22.497Z,8.33
2018-06-25T00:26:56.754Z,7.57
2018-06-25T00:27:30.616Z,7.47
2018-06-25T00:28:04.688Z,11.70
2018-06-25T00:28:38.820Z,8.08
2018-06-25T00:29:13.054Z,7.63
2018-06-25T00:29:46.939Z,7.90
2018-06-25T00:30:20.777Z,8.30
2018-06-25T00:30:54.808Z,9.57
2018-06-25T00:31:29.011Z,12.30
2018-06-25T00:32:03.494Z,8.63
2018-06-25T00:32:37.646Z,10.40
2018-06-25T00:33:11.542Z,13.43
2018-06-25T00:33:45.846Z,8.40
2018-06-25T00:34:19.761Z,11.90
2018-06-25T00:34:53.655Z,7.70
2018-06-25T00:35:27.530Z,8.73
2018-06-25T00:36:01.438Z,9.30
2018-06-25T00:36:35.322Z,7.10
2018-06-25T00:37:10.238Z,11.53
2018-06-25T00:37:44.127Z,13.00
2018-06-25T00:38:18.258Z,8.10
2018-06-25T00:38:52.197Z,9.90
2018-06-25T00:39:26.086Z,7.43
2018-06-25T00:39:59.979Z,8.93
2018-06-25T00:40:34.165Z,5.42
2018-06-25T00:41:08.344Z,11.25
2018-06-25T00:41:42.859Z,10.20
2018-06-25T00:42:17.046Z,8.80
2018-06-25T00:42:51.010Z,9.60
2018-06-25T00:43:24.883Z,10.40
2018-06-25T00:43:59.067Z,5.95
2018-06-25T00:44:32.955Z,8.27
2018-06-25T00:45:07.441Z,9.28
2018-06-25T00:45:41.638Z,9.40
2018-06-25T00:46:15.886Z,8.77
2018-06-25T00:46:49.780Z,11.90
2018-06-25T00:47:23.676Z,10.03
2018-06-25T00:47:58.297Z,10.20
2018-06-25T00:48:32.193Z,10.77
2018-06-25T00:49:06.484Z,7.33
2018-06-25T00:49:40.396Z,7.60
2018-06-25T00:50:14.629Z,11.43
2018-06-25T00:50:48.502Z,7.23
2018-06-25T00:51:22.728Z,7.73
2018-06-25T00:51:56.604Z,12.03
2018-06-25T00:52:30.482Z,8.40
2018-06-25T00:53:04.373Z,8.37
2018-06-25T00:53:38.239Z,8.20
2018-06-25T00:54:12.140Z,9.60
2018-06-25T00:54:46.013Z,7.97
2018-06-25T00:55:19.929Z,9.50
2018-06-25T00:55:54.153Z,8.33
2018-06-25T00:56:28.098Z,10.30
2018-06-25T00:57:02.178Z,9.00
2018-06-25T00:57:36.063Z,6.80
2018-06-25T00:58:10.283Z,10.17
2018-06-25T00:58:55.680Z,6.93
2018-06-25T00:59:40.929Z,6.93
2018-06-25T01:00:15.093Z,8.65
2018-06-25T01:00:49.265Z,10.90
2018-06-25T01:01:23.474Z,10.13
2018-06-25T01:01:58.667Z,8.85
2018-06-25T01:02:32.830Z,8.48
2018-06-25T01:03:06.488Z,8.67
2018-06-25T01:03:40.590Z,10.18
2018-06-25T01:04:15.053Z,8.48
2018-06-25T01:04:49.383Z,8.33
2018-06-25T01:05:23.516Z,12.20
2018-06-25T01:05:58.125Z,11.00
2018-06-25T01:06:32.209Z,6.20
2018-06-25T01:07:06.144Z,13.63
2018-06-25T01:07:40.042Z,11.67
2018-06-25T01:08:13.928Z,8.07
2018-06-25T01:08:47.824Z,6.80
2018-06-25T01:09:21.688Z,7.70
2018-06-25T01:09:55.612Z,8.10
2018-06-25T01:10:29.506Z,8.60
2018-06-25T01:11:03.405Z,8.60
2018-06-25T01:11:37.303Z,8.27
2018-06-25T01:12:11.200Z,12.17
2018-06-25T01:12:44.849Z,10.90
2018-06-25T01:13:18.964Z,7.37
2018-06-25T01:13:53.557Z,10.10
2018-06-25T01:14:27.476Z,8.88
2018-06-25T01:15:01.896Z,9.38
2018-06-25T01:15:35.791Z,7.23
2018-06-25T01:16:10.039Z,14.40
2018-06-25T01:16:44.639Z,9.63
2018-06-25T01:17:19.454Z,8.73
2018-06-25T01:17:53.319Z,13.30
2018-06-25T01:18:27.186Z,10.67
2018-06-25T01:19:01.112Z,8.03
2018-06-25T01:19:35.316Z,10.72
2018-06-25T01:20:09.166Z,8.73
2018-06-25T01:20:43.436Z,11.40
2018-06-25T01:21:17.332Z,11.93
2018-06-25T01:21:51.542Z,11.63
2018-06-25T01:22:25.466Z,9.93
2018-06-25T01:22:59.352Z,7.47
2018-06-25T01:23:33.555Z,7.75
2018-06-25T01:24:07.428Z,7.77
2018-06-25T01:24:41.657Z,11.90
2018-06-25T01:25:16.140Z,10.23
2018-06-25T01:25:50.318Z,9.23
2018-06-25T01:26:24.258Z,11.23
2018-06-25T01:26:58.538Z,10.03
2018-06-25T01:27:32.498Z,10.83
2018-06-25T01:28:06.681Z,8.33
2018-06-25T01:28:40.886Z,8.50
2018-06-25T01:29:14.800Z,12.27
2018-06-25T01:29:48.675Z,9.77
2018-06-25T01:30:22.826Z,14.83
2018-06-25T01:30:57.018Z,11.63
2018-06-25T01:31:30.942Z,12.03
2018-06-25T01:32:05.462Z,15.90
2018-06-25T01:32:39.380Z,11.00
2018-06-25T01:33:13.292Z,11.80
2018-06-25T01:33:47.176Z,9.00
2018-06-25T01:34:21.120Z,13.10
2018-06-25T01:34:55.274Z,18.27
2018-06-25T01:35:29.794Z,7.83
2018-06-25T01:36:04.332Z,14.90
2018-06-25T01:36:38.842Z,11.73
2018-06-25T01:37:12.788Z,10.63
2018-06-25T01:37:47.306Z,9.43
2018-06-25T01:38:21.552Z,7.80
2018-06-25T01:38:55.726Z,8.38
2018-06-25T01:39:29.878Z,8.45
2018-06-25T01:40:04.022Z,9.60
2018-06-25T01:40:38.228Z,11.45
2018-06-25T01:41:12.762Z,10.15
2018-06-25T01:41:46.968Z,9.60
2018-06-25T01:42:21.224Z,10.33
2018-06-25T01:42:55.450Z,10.88
2018-06-25T01:43:29.708Z,10.38
2018-06-25T01:44:03.886Z,15.20
2018-06-25T01:44:38.080Z,17.07
2018-06-25T01:45:12.589Z,10.23
2018-06-25T01:45:47.020Z,11.88
2018-06-25T01:46:21.223Z,12.30
2018-06-25T01:46:56.984Z,13.18
2018-06-25T01:47:31.178Z,15.55
2018-06-25T01:48:05.542Z,12.50
2018-06-25T01:48:40.054Z,10.53
2018-06-25T01:49:14.215Z,13.25
2018-06-25T01:49:48.380Z,12.47
2018-06-25T01:50:22.311Z,13.73
2018-06-25T01:50:56.834Z,11.55
2018-06-25T01:51:31.026Z,10.25
2018-06-25T01:52:04.983Z,15.83
2018-06-25T01:52:39.160Z,13.43
2018-06-25T01:53:13.387Z,10.88
2018-06-25T01:53:47.564Z,11.55
2018-06-25T01:54:21.796Z,11.70
2018-06-25T01:54:55.922Z,12.63
2018-06-25T01:55:30.444Z,15.60
2018-06-25T01:56:04.565Z,10.70
2018-06-25T01:56:39.049Z,10.28
2018-06-25T01:57:13.532Z,9.60
2018-06-25T01:57:47.956Z,11.75
2018-06-25T01:58:21.894Z,10.53
2018-06-25T01:58:56.145Z,14.70
2018-06-25T01:59:30.328Z,15.30
2018-06-25T02:00:04.601Z,13.50
2018-06-25T02:00:38.770Z,14.38
2018-06-25T02:01:13.308Z,12.20
2018-06-25T02:01:47.454Z,13.32
2018-06-25T02:02:21.659Z,12.50
2018-06-25T02:02:55.843Z,12.13
2018-06-25T02:03:30.332Z,14.85
2018-06-25T02:04:04.229Z,12.00
2018-06-25T02:04:38.413Z,11.30
2018-06-25T02:05:12.922Z,11.08
2018-06-25T02:05:47.103Z,17.42
2018-06-25T02:06:21.325Z,14.47
2018-06-25T02:06:55.866Z,15.90
2018-06-25T02:07:30.051Z,14.78
2018-06-25T02:08:04.197Z,12.28
2018-06-25T02:08:38.414Z,11.80
2018-06-25T02:09:13.200Z,18.12
2018-06-25T02:09:47.405Z,16.10
2018-06-25T02:10:21.942Z,13.65
2018-06-25T02:10:55.867Z,11.33
2018-06-25T02:11:30.013Z,16.52
2018-06-25T02:12:04.518Z,15.68
2018-06-25T02:12:38.469Z,13.93
2018-06-25T02:13:12.760Z,14.25
2018-06-25T02:13:46.683Z,12.23
2018-06-25T02:14:20.560Z,11.20
2018-06-25T02:14:54.503Z,13.07
2018-06-25T02:15:28.734Z,13.60
2018-06-25T02:16:02.946Z,17.82
2018-06-25T02:16:37.706Z,12.63
2018-06-25T02:17:11.649Z,20.02
2018-06-25T02:17:46.079Z,13.15
2018-06-25T02:18:19.918Z,12.57
2018-06-25T02:18:54.480Z,14.33
2018-06-25T02:19:28.427Z,15.93
2018-06-25T02:20:02.681Z,11.15
2018-06-25T02:20:36.577Z,11.57
2018-06-25T02:21:10.755Z,12.35
2018-06-25T02:21:44.933Z,12.55
2018-06-25T02:22:19.156Z,12.50
2018-06-25T02:22:53.386Z,15.08
2018-06-25T02:23:27.741Z,14.27
2018-06-25T02:24:02.229Z,12.50
2018-06-25T02:24:36.765Z,13.40
2018-06-25T02:25:11.259Z,19.52
2018-06-25T02:25:45.181Z,14.30
2018-06-25T02:26:19.410Z,17.75
2018-06-25T02:26:53.611Z,12.93
2018-06-25T02:27:27.817Z,13.43
2018-06-25T02:28:01.759Z,13.23
2018-06-25T02:28:35.970Z,13.88
2018-06-25T02:29:10.465Z,17.57
2018-06-25T02:29:44.379Z,16.43
2018-06-25T02:30:18.582Z,12.88
2018-06-25T02:30:52.787Z,14.53
2018-06-25T02:31:27.329Z,12.47
2018-06-25T02:32:01.894Z,14.47
2018-06-25T02:32:35.781Z,13.90
2018-06-25T02:33:10.004Z,15.28
2018-06-25T02:33:44.511Z,17.27
2018-06-25T02:34:18.689Z,10.08
2018-06-25T02:34:52.858Z,15.32
2018-06-25T02:35:27.040Z,17.27
2018-06-25T02:36:01.242Z,15.53
2018-06-25T02:36:35.149Z,14.97
2018-06-25T02:37:09.713Z,13.88
2018-06-25T02:37:44.221Z,19.15
2018-06-25T02:38:18.422Z,17.98
2018-06-25T02:38:53.007Z,15.70
2018-06-25T02:39:27.170Z,17.10
2018-06-25T02:40:01.743Z,12.00
2018-06-25T02:40:36.340Z,14.18
2018-06-25T02:41:10.537Z,12.75
2018-06-25T02:41:44.738Z,17.90
2018-06-25T02:42:19.215Z,18.45
2018-06-25T02:42:53.403Z,14.75
2018-06-25T02:43:27.577Z,13.93
2018-06-25T02:44:01.806Z,15.40
2018-06-25T02:44:36.328Z,17.80
2018-06-25T02:45:10.512Z,16.77
2018-06-25T02:45:44.408Z,13.30
2018-06-25T02:46:18.843Z,14.20
2018-06-25T02:46:53.084Z,11.67
2018-06-25T02:47:27.239Z,17.35
2018-06-25T02:48:01.420Z,16.17
2018-06-25T02:48:35.557Z,11.25
2018-06-25T02:49:09.795Z,9.57
2018-06-25T02:49:43.687Z,13.70
2018-06-25T02:50:17.922Z,13.77
2018-06-25T02:50:55.197Z,16.27
2018-06-25T02:51:29.471Z,14.60
2018-06-25T02:52:03.725Z,15.53
2018-06-25T02:52:38.227Z,13.50
2018-06-25T02:53:12.179Z,22.93
2018-06-25T02:53:46.063Z,16.53
2018-06-25T02:54:20.226Z,15.40
2018-06-25T02:54:54.109Z,13.10
2018-06-25T02:55:27.965Z,22.60
2018-06-25T02:56:02.205Z,14.53
2018-06-25T02:56:36.083Z,21.40
2018-06-25T02:57:13.833Z,12.77
2018-06-25T02:57:47.733Z,15.10
2018-06-25T02:58:21.647Z,20.43
2018-06-25T02:58:55.845Z,19.27
2018-06-25T02:59:30.066Z,14.50
2018-06-25T03:00:04.299Z,15.60
2018-06-25T03:00:38.837Z,11.70
2018-06-25T03:01:13.287Z,14.28
2018-06-25T03:01:47.178Z,22.47
2018-06-25T03:02:21.624Z,14.80
2018-06-25T03:02:55.767Z,15.25
2018-06-25T03:03:29.695Z,18.77
2018-06-25T03:04:03.621Z,15.83
2018-06-25T03:04:37.801Z,11.83
2018-06-25T03:05:12.284Z,19.35
2018-06-25T03:05:46.864Z,17.50
2018-06-25T03:06:20.707Z,16.20
2018-06-25T03:06:54.341Z,16.23
2018-06-25T03:07:28.139Z,14.30
2018-06-25T03:08:02.337Z,15.50
2018-06-25T03:08:36.553Z,18.60
2018-06-25T03:09:11.563Z,14.80
2018-06-25T03:09:45.797Z,15.50
2018-06-25T03:10:19.680Z,16.73
2018-06-25T03:10:53.595Z,12.43
2018-06-25T03:11:27.615Z,14.03
2018-06-25T03:12:01.393Z,21.90
2018-06-25T03:12:35.275Z,13.87
2018-06-25T03:13:11.130Z,15.47
2018-06-25T03:13:45.027Z,11.00
2018-06-25T03:14:19.175Z,19.65
2018-06-25T03:14:53.087Z,12.33
2018-06-25T03:15:27.531Z,18.62
2018-06-25T03:16:01.780Z,10.50
2018-06-25T03:16:35.975Z,14.83
2018-06-25T03:17:09.871Z,15.60
2018-06-25T03:17:43.776Z,20.27
2018-06-25T03:18:17.708Z,13.37
2018-06-25T03:18:51.499Z,11.40
2018-06-25T03:19:25.403Z,13.80
2018-06-25T03:19:59.045Z,12.73
2018-06-25T03:20:32.885Z,18.77
2018-06-25T03:21:06.784Z,10.50
2018-06-25T03:21:40.675Z,19.53
2018-06-25T03:22:14.577Z,17.90
2018-06-25T03:22:48.503Z,16.43
2018-06-25T03:23:22.381Z,17.50
2018-06-25T03:23:56.302Z,14.70
2018-06-25T03:24:30.549Z,13.13
2018-06-25T03:25:04.443Z,16.37
2018-06-25T03:25:38.637Z,14.17
2018-06-25T03:26:12.501Z,14.00
2018-06-25T03:26:46.969Z,15.53
2018-06-25T03:27:21.195Z,13.83
2018-06-25T03:27:55.087Z,14.70
2018-06-25T03:28:28.967Z,12.33
2018-06-25T03:29:03.191Z,17.60
2018-06-25T03:29:37.435Z,14.13
2018-06-25T03:30:11.647Z,15.87
2018-06-25T03:30:45.545Z,17.60
2018-06-25T03:31:19.439Z,15.20
2018-06-25T03:31:53.339Z,14.57
2018-06-25T03:32:27.227Z,15.17
2018-06-25T03:33:01.125Z,13.70
2018-06-25T03:33:35.005Z,13.83
2018-06-25T03:34:08.883Z,11.97
2018-06-25T03:34:43.437Z,11.90
2018-06-25T03:35:17.307Z,14.60
2018-06-25T03:35:51.877Z,16.00
2018-06-25T03:36:25.766Z,16.33
2018-06-25T03:36:59.687Z,15.50
2018-06-25T03:37:33.931Z,18.27
2018-06-25T03:38:07.811Z,13.00
2018-06-25T03:38:41.706Z,14.77
2018-06-25T03:39:15.600Z,15.43
2018-06-25T03:39:49.499Z,13.47
2018-06-25T03:40:23.429Z,14.67
2018-06-25T03:40:57.355Z,18.37
2018-06-25T03:41:31.389Z,22.50
2018-06-25T03:42:05.790Z,15.67
2018-06-25T03:42:39.683Z,15.77
2018-06-25T03:43:13.556Z,19.40
2018-06-25T03:43:47.463Z,12.23
2018-06-25T03:44:21.327Z,17.97
2018-06-25T03:44:55.573Z,19.90
2018-06-25T03:45:29.487Z,14.03
2018-06-25T03:46:03.377Z,14.33
2018-06-25T03:46:37.588Z,15.83
2018-06-25T03:47:11.481Z,10.63
2018-06-25T03:47:45.444Z,17.80
2018-06-25T03:48:19.349Z,18.20
2018-06-25T03:48:53.601Z,20.30
2018-06-25T03:49:27.821Z,17.53
2018-06-25T03:50:02.079Z,21.23
2018-06-25T03:50:35.997Z,20.33
2018-06-25T03:51:10.269Z,15.80
2018-06-25T03:51:44.150Z,15.20
2018-06-25T03:52:18.113Z,17.30
2018-06-25T03:52:52.357Z,23.50
2018-06-25T03:53:26.265Z,20.27
2018-06-25T03:54:00.211Z,19.13
2018-06-25T03:54:34.068Z,17.77
2018-06-25T03:55:08.303Z,17.50
2018-06-25T03:55:42.539Z,19.57
2018-06-25T03:56:16.453Z,20.00
2018-06-25T03:56:50.371Z,22.13
2018-06-25T03:57:24.323Z,21.13
2018-06-25T03:57:58.607Z,14.37
2018-06-25T03:58:32.541Z,23.57
2018-06-25T03:59:06.859Z,24.33
2018-06-25T03:59:40.829Z,19.30
2018-06-25T04:00:15.099Z,17.27
2018-06-25T04:00:48.989Z,19.93
2018-06-25T04:01:22.940Z,19.17
2018-06-25T04:01:57.298Z,20.80
2018-06-25T04:02:31.256Z,21.20
2018-06-25T04:03:05.522Z,22.40
2018-06-25T04:03:39.604Z,25.83
2018-06-25T04:04:13.902Z,22.60
2018-06-25T04:04:47.837Z,22.43
2018-06-25T04:05:21.477Z,18.70
2018-06-25T04:05:55.345Z,24.37
2018-06-25T04:06:29.371Z,31.40
2018-06-25T04:07:03.299Z,21.17
2018-06-25T04:07:37.320Z,18.33
2018-06-25T04:08:11.123Z,24.07
2018-06-25T04:08:45.419Z,20.90
2018-06-25T04:09:19.695Z,23.23
2018-06-25T04:09:53.597Z,20.37
2018-06-25T04:10:27.514Z,20.27
2018-06-25T04:11:06.833Z,18.87
2018-06-25T04:11:41.175Z,26.20
2018-06-25T04:12:15.080Z,27.50
2018-06-25T04:12:49.166Z,22.03
2018-06-25T04:13:23.375Z,28.57
2018-06-25T04:13:57.321Z,23.63
2018-06-25T04:14:31.359Z,27.50
2018-06-25T04:15:05.582Z,24.27
2018-06-25T04:15:39.874Z,25.30
2018-06-25T04:16:13.746Z,27.30
2018-06-25T04:16:48.011Z,26.27
2018-06-25T04:17:21.961Z,25.63
2018-06-25T04:17:56.232Z,24.43
2018-06-25T04:18:30.466Z,22.43
2018-06-25T04:19:05.289Z,25.03
2018-06-25T04:19:39.217Z,27.07
2018-06-25T04:20:13.797Z,23.13
2018-06-25T04:20:48.473Z,21.33
2018-06-25T04:21:22.497Z,23.53
2018-06-25T04:21:56.391Z,22.27
2018-06-25T04:22:30.323Z,27.00
2018-06-25T04:23:04.541Z,22.63
2018-06-25T04:23:38.444Z,22.40
2018-06-25T04:24:12.530Z,22.83
2018-06-25T04:24:46.484Z,25.07
2018-06-25T04:25:20.349Z,19.20
2018-06-25T04:25:54.575Z,26.47
2018-06-25T04:26:28.536Z,19.30
2018-06-25T04:27:02.414Z,19.97
2018-06-25T04:27:36.286Z,26.77
2018-06-25T04:28:10.172Z,21.63
2018-06-25T04:28:44.053Z,23.23
2018-06-25T04:29:17.992Z,27.10
2018-06-25T04:29:52.017Z,20.90
2018-06-25T04:30:26.620Z,21.73
2018-06-25T04:31:00.530Z,19.13
2018-06-25T04:31:34.792Z,23.63
2018-06-25T04:32:09.019Z,23.47
2018-06-25T04:32:42.899Z,26.87
2018-06-25T04:33:16.843Z,29.13
2018-06-25T04:33:50.751Z,25.77
2018-06-25T04:34:24.646Z,19.37
2018-06-25T04:34:58.490Z,22.77
2018-06-25T04:35:32.371Z,21.70
2018-06-25T04:36:06.583Z,22.63
2018-06-25T04:36:40.447Z,30.03
2018-06-25T04:37:14.529Z,17.20
2018-06-25T04:37:48.423Z,25.87
2018-06-25T04:38:22.373Z,26.37
2018-06-25T04:38:56.249Z,29.17
2018-06-25T04:39:30.055Z,20.57
2018-06-25T04:40:04.321Z,23.83
2018-06-25T04:40:38.535Z,22.57
2018-06-25T04:41:13.016Z,18.73
2018-06-25T04:41:47.260Z,30.33
2018-06-25T04:42:21.150Z,22.23
2018-06-25T04:42:55.053Z,21.87
2018-06-25T04:43:28.941Z,21.87
2018-06-25T04:44:03.147Z,38.63
2018-06-25T04:44:37.017Z,36.10
2018-06-25T04:45:11.262Z,22.37
2018-06-25T04:45:45.508Z,23.43
2018-06-25T04:46:19.360Z,21.50
2018-06-25T04:46:53.585Z,23.53
2018-06-25T04:47:27.458Z,21.03
2018-06-25T04:48:02.006Z,23.27
2018-06-25T04:48:36.245Z,25.43
2018-06-25T04:49:10.142Z,22.97
2018-06-25T04:49:44.020Z,26.60
2018-06-25T04:50:18.294Z,22.03
2018-06-25T04:50:52.181Z,20.00
2018-06-25T04:51:26.063Z,23.17
2018-06-25T04:51:59.922Z,19.83
2018-06-25T04:52:33.778Z,24.00
2018-06-25T04:53:07.658Z,20.90
2018-06-25T04:53:42.165Z,24.27
2018-06-25T04:54:16.033Z,18.80
2018-06-25T04:54:49.975Z,16.97
2018-06-25T04:55:24.102Z,23.00
2018-06-25T04:55:58.003Z,20.60
2018-06-25T04:56:32.185Z,18.77
2018-06-25T04:57:06.390Z,22.03
2018-06-25T04:57:40.288Z,15.73
2018-06-25T04:58:14.161Z,20.90
2018-06-25T04:58:48.009Z,18.60
2018-06-25T04:59:22.285Z,19.60
2018-06-25T04:59:56.130Z,19.70
2018-06-25T05:00:30.026Z,21.67
2018-06-25T05:01:03.981Z,27.70
2018-06-25T05:01:38.062Z,33.50
2018-06-25T05:02:11.998Z,19.80
2018-06-25T05:02:45.852Z,20.37
2018-06-25T05:03:19.710Z,22.97
2018-06-25T05:03:53.886Z,21.80
2018-06-25T05:04:28.076Z,20.47
2018-06-25T05:05:02.374Z,29.40
2018-06-25T05:05:36.274Z,20.43
2018-06-25T05:06:10.144Z,26.50
2018-06-25T05:06:44.440Z,19.93
2018-06-25T05:07:18.801Z,28.50
2018-06-25T05:07:52.651Z,26.03
2018-06-25T05:08:26.535Z,23.10
2018-06-25T05:09:00.418Z,22.70
2018-06-25T05:09:34.258Z,22.37
2018-06-25T05:10:08.109Z,24.00
2018-06-25T05:10:42.006Z,24.50
2018-06-25T05:11:16.225Z,22.57
2018-06-25T05:11:50.089Z,35.73
2018-06-25T05:12:23.955Z,20.60
2018-06-25T05:12:57.801Z,24.80
2018-06-25T05:13:31.653Z,16.93
2018-06-25T05:14:05.901Z,20.37
2018-06-25T05:14:39.804Z,21.00
2018-06-25T05:15:13.993Z,21.30
2018-06-25T05:15:47.862Z,22.57
2018-06-25T05:16:21.740Z,32.87
2018-06-25T05:16:55.925Z,21.37
2018-06-25T05:17:29.789Z,20.07
2018-06-25T05:18:03.664Z,19.03
2018-06-25T05:18:37.599Z,24.53
2018-06-25T05:19:11.847Z,22.30
2018-06-25T05:19:45.742Z,18.87
2018-06-25T05:20:20.026Z,22.97
2018-06-25T05:20:53.943Z,14.47
2018-06-25T05:21:27.865Z,21.63
2018-06-25T05:22:01.768Z,15.33
2018-06-25T05:22:35.661Z,24.20
2018-06-25T05:23:09.571Z,18.23
2018-06-25T05:23:43.346Z,23.03
2018-06-25T05:24:17.315Z,21.10
2018-06-25T05:24:51.547Z,19.77
2018-06-25T05:25:25.385Z,21.97
2018-06-25T05:25:59.643Z,20.83
2018-06-25T05:26:33.942Z,25.97
2018-06-25T05:27:07.815Z,19.77
2018-06-25T05:27:42.039Z,18.17
2018-06-25T05:28:16.608Z,16.90
2018-06-25T05:28:50.524Z,21.47
2018-06-25T05:29:24.521Z,24.77
2018-06-25T05:29:58.766Z,21.37
2018-06-25T05:30:33.158Z,25.27
2018-06-25T05:31:07.427Z,23.20
2018-06-25T05:31:41.378Z,28.63
2018-06-25T05:32:15.298Z,17.27
2018-06-25T05:32:49.247Z,25.83
2018-06-25T05:33:23.153Z,17.73
2018-06-25T05:33:57.108Z,23.13
2018-06-25T05:34:31.088Z,18.97
2018-06-25T05:35:04.994Z,22.07
2018-06-25T05:35:38.922Z,24.63
2018-06-25T05:36:13.283Z,19.13
2018-06-25T05:36:47.895Z,26.07
2018-06-25T05:37:22.235Z,30.03
2018-06-25T05:37:56.832Z,19.03
2018-06-25T05:38:30.893Z,22.90
2018-06-25T05:39:08.592Z,20.83
2018-06-25T05:39:42.498Z,23.40
2018-06-25T05:40:16.698Z,21.60
2018-06-25T05:40:50.943Z,27.00
2018-06-25T05:41:25.197Z,19.40
2018-06-25T05:42:02.272Z,26.50
2018-06-25T05:42:36.581Z,25.60
2018-06-25T05:43:10.480Z,20.50
2018-06-25T05:43:44.407Z,22.97
2018-06-25T05:44:18.287Z,19.67
2018-06-25T05:44:53.056Z,18.50
2018-06-25T05:45:27.554Z,16.83
2018-06-25T05:46:01.494Z,19.70
2018-06-25T05:46:35.964Z,25.47
2018-06-25T05:47:09.982Z,20.93
2018-06-25T05:47:43.900Z,25.67
2018-06-25T05:48:17.858Z,23.97
2018-06-25T05:48:51.784Z,25.70
2018-06-25T05:49:25.882Z,26.37
2018-06-25T05:50:02.402Z,19.87
2018-06-25T05:50:36.862Z,25.93
2018-06-25T05:51:11.112Z,18.83
2018-06-25T05:51:45.428Z,19.50
2018-06-25T05:52:21.651Z,31.07
2018-06-25T05:52:55.529Z,17.53
2018-06-25T05:53:29.245Z,21.27
2018-06-25T05:54:03.624Z,28.83
2018-06-25T05:54:37.580Z,30.17
2018-06-25T05:55:12.278Z,25.60
2018-06-25T05:55:46.146Z,26.73
2018-06-25T05:56:20.398Z,27.83
2018-06-25T05:56:54.301Z,20.40
2018-06-25T05:57:28.172Z,22.43
2018-06-25T05:58:02.038Z,21.93
2018-06-25T05:58:35.924Z,32.83
2018-06-25T05:59:10.111Z,24.43
2018-06-25T05:59:44.387Z,27.43
2018-06-25T06:00:23.136Z,19.57
2018-06-25T06:00:58.428Z,24.50
2018-06-25T06:01:33.238Z,24.33
2018-06-25T06:02:07.111Z,34.67
2018-06-25T06:02:41.448Z,21.00
2018-06-25T06:03:16.028Z,19.47
2018-06-25T06:03:52.708Z,21.73
2018-06-25T06:04:26.956Z,18.13
2018-06-25T06:05:00.944Z,24.90
2018-06-25T06:05:35.820Z,24.13
2018-06-25T06:06:10.074Z,16.20
2018-06-25T06:06:44.204Z,32.23
2018-06-25T06:07:18.106Z,23.20
2018-06-25T06:07:52.693Z,24.13
2018-06-25T06:08:26.573Z,24.60
2018-06-25T06:09:00.863Z,25.10
2018-06-25T06:09:34.930Z,25.20
2018-06-25T06:10:09.173Z,23.07
2018-06-25T06:10:43.774Z,17.93
2018-06-25T06:11:18.001Z,19.40
2018-06-25T06:11:51.877Z,20.50
2018-06-25T06:12:25.748Z,21.70
2018-06-25T06:12:59.575Z,21.37
2018-06-25T06:13:33.787Z,18.80
2018-06-25T06:14:08.001Z,23.00
2018-06-25T06:14:41.861Z,27.60
2018-06-25T06:15:15.720Z,21.43
2018-06-25T06:15:49.572Z,22.47
2018-06-25T06:16:23.512Z,15.90
2018-06-25T06:16:58.062Z,21.00
2018-06-25T06:17:31.676Z,19.00
2018-06-25T06:18:06.299Z,19.77
2018-06-25T06:18:40.863Z,17.70
2018-06-25T06:19:14.883Z,22.57
2018-06-25T06:19:48.736Z,15.90
2018-06-25T06:20:22.670Z,20.83
2018-06-25T06:20:56.546Z,15.10
2018-06-25T06:21:30.494Z,22.40
2018-06-25T06:22:04.754Z,16.93
2018-06-25T06:22:38.994Z,22.83
2018-06-25T06:23:12.922Z,23.47
2018-06-25T06:23:46.850Z,22.50
2018-06-25T06:24:20.918Z,20.67
2018-06-25T06:24:55.124Z,21.33
2018-06-25T06:25:29.014Z,17.40
2018-06-25T06:26:03.265Z,22.37
2018-06-25T06:26:37.154Z,28.80
2018-06-25T06:27:11.370Z,21.77
2018-06-25T06:27:45.225Z,25.03
2018-06-25T06:28:19.100Z,17.40
2018-06-25T06:28:52.985Z,21.63
2018-06-25T06:29:26.856Z,22.97
2018-06-25T06:30:01.376Z,20.13
2018-06-25T06:30:35.620Z,16.67
2018-06-25T06:31:09.596Z,16.57
2018-06-25T06:31:43.496Z,24.87
2018-06-25T06:32:17.384Z,17.13
2018-06-25T06:32:51.280Z,15.23
2018-06-25T06:33:25.248Z,19.07
2018-06-25T06:33:59.246Z,17.53
2018-06-25T06:34:33.144Z,21.37
2018-06-25T06:35:07.065Z,27.83
2018-06-25T06:35:40.965Z,20.30
2018-06-25T06:36:14.850Z,16.33
2018-06-25T06:36:49.102Z,25.27
2018-06-25T06:37:22.970Z,21.97
2018-06-25T06:37:56.864Z,16.23
2018-06-25T06:38:30.761Z,15.40
2018-06-25T06:39:08.871Z,21.60
2018-06-25T06:39:42.775Z,15.50
2018-06-25T06:40:16.644Z,24.90
2018-06-25T06:40:50.538Z,24.23
2018-06-25T06:41:24.496Z,19.37
2018-06-25T06:41:58.799Z,23.40
2018-06-25T06:42:33.172Z,29.57
2018-06-25T06:43:07.054Z,26.17
2018-06-25T06:43:41.286Z,27.57
2018-06-25T06:44:15.518Z,29.03
2018-06-25T06:44:49.414Z,22.73
2018-06-25T06:45:25.051Z,26.00
2018-06-25T06:45:59.479Z,22.30
2018-06-25T06:46:33.746Z,27.83
2018-06-25T06:47:07.702Z,25.40
2018-06-25T06:47:41.680Z,19.87
2018-06-25T06:48:15.902Z,25.93
2018-06-25T06:48:50.188Z,22.50
2018-06-25T06:49:25.891Z,24.70
2018-06-25T06:49:59.780Z,34.60
2018-06-25T06:50:33.662Z,25.00
2018-06-25T06:51:07.578Z,32.17
2018-06-25T06:51:41.542Z,25.33
2018-06-25T06:52:15.497Z,21.60
2018-06-25T06:52:49.406Z,33.63
2018-06-25T06:53:23.289Z,35.13
2018-06-25T06:53:57.512Z,29.43
2018-06-25T06:54:31.756Z,24.53
2018-06-25T06:55:05.965Z,27.47
2018-06-25T06:55:39.852Z,24.73
2018-06-25T06:56:13.770Z,33.90
2018-06-25T06:56:47.458Z,23.40
2018-06-25T06:57:21.286Z,23.43
2018-06-25T06:57:55.160Z,26.77
2018-06-25T06:58:28.812Z,24.80
2018-06-25T06:59:02.639Z,25.93
2018-06-25T06:59:36.284Z,28.17
2018-06-25T07:00:10.115Z,26.53
2018-06-25T07:00:43.776Z,27.63
2018-06-25T07:01:17.618Z,26.93
2018-06-25T07:01:51.544Z,27.80
2018-06-25T07:02:25.837Z,22.43
2018-06-25T07:02:59.804Z,27.57
2018-06-25T07:03:33.483Z,25.13
2018-06-25T07:04:07.324Z,25.50
2018-06-25T07:04:41.257Z,29.90
2018-06-25T07:05:15.305Z,28.07
2018-06-25T07:05:49.250Z,22.57
2018-06-25T07:06:23.512Z,31.80
2018-06-25T07:06:57.796Z,26.57
2018-06-25T07:07:31.831Z,22.30
2018-06-25T07:08:05.808Z,26.10
2018-06-25T07:08:39.828Z,25.00
2018-06-25T07:09:14.455Z,30.70
2018-06-25T07:09:48.390Z,23.73
2018-06-25T07:10:22.394Z,27.33
2018-06-25T07:10:57.136Z,29.47
2018-06-25T07:11:31.069Z,23.07
2018-06-25T07:12:04.986Z,23.60
2018-06-25T07:12:38.883Z,22.10
2018-06-25T07:13:12.679Z,27.73
2018-06-25T07:13:46.845Z,33.23
2018-06-25T07:14:21.081Z,26.27
2018-06-25T07:14:55.289Z,24.97
2018-06-25T07:15:29.243Z,23.33
2018-06-25T07:16:03.812Z,23.00
2018-06-25T07:16:38.578Z,18.70
2018-06-25T07:18:16.641Z,22.50
2018-06-25T07:18:50.494Z,20.70
2018-06-25T07:19:24.721Z,26.53
2018-06-25T07:19:58.643Z,22.67
2018-06-25T07:20:32.553Z,23.10
2018-06-25T07:21:06.805Z,25.50
2018-06-25T07:21:40.707Z,29.60
2018-06-25T07:22:14.937Z,31.17
2018-06-25T07:22:48.863Z,24.27
2018-06-25T07:23:24.186Z,19.97